sensor_id;sensor_type;location;lat;lon;timestamp;temperature;humidity
33699;DHT22;20032;52.436;13.312;2023-09-30T00:04:08;17.90;99.90
33699;DHT22;20032;52.436;13.312;2023-09-30T00:06:34;17.90;99.90
33699;DHT22;20032;52.436;13.312;2023-09-30T00:08:59;17.80;99.90
33699;DHT22;20032;52.436;13.312;2023-09-30T00:11:25;17.60;99.90
33699;DHT22;20032;52.436;13.312;2023-09-30T00:13:51;17.60;99.90
33699;DHT22;20032;52.436;13.312;2023-09-30T00:16:17;17.60;99.90
33699;DHT22;20032;52.436;13.312;2023-09-30T00:18:44;17.50;99.90
33699;DHT22;20032;52.436;13.312;2023-09-30T00:21:10;17.50;99.90
33699;DHT22;20032;52.436;13.312;2023-09-30T00:23:35;17.40;99.90
33699;DHT22;20032;52.436;13.312;2023-09-30T00:26:01;17.30;99.90
33699;DHT22;20032;52.436;13.312;2023-09-30T00:28:26;17.30;99.90
33699;DHT22;20032;52.436;13.312;2023-09-30T00:30:52;17.30;99.90
33699;DHT22;20032;52.436;13.312;2023-09-30T00:33:17;17.20;99.90
33699;DHT22;20032;52.436;13.312;2023-09-30T00:35:43;17.20;99.90
33699;DHT22;20032;52.436;13.312;2023-09-30T00:38:08;17.10;99.90
33699;DHT22;20032;52.436;13.312;2023-09-30T00:40:35;17.00;99.90
33699;DHT22;20032;52.436;13.312;2023-09-30T00:43:01;17.00;99.90
33699;DHT22;20032;52.436;13.312;2023-09-30T00:45:27;16.90;99.90
33699;DHT22;20032;52.436;13.312;2023-09-30T00:47:53;16.80;99.90
33699;DHT22;20032;52.436;13.312;2023-09-30T00:50:19;16.80;99.90
33699;DHT22;20032;52.436;13.312;2023-09-30T00:52:46;16.70;99.90
33699;DHT22;20032;52.436;13.312;2023-09-30T00:55:14;16.70;99.90
33699;DHT22;20032;52.436;13.312;2023-09-30T00:57:40;16.70;99.90
33699;DHT22;20032;52.436;13.312;2023-09-30T01:00:07;16.50;99.90
33699;DHT22;20032;52.436;13.312;2023-09-30T01:02:35;16.50;99.90
33699;DHT22;20032;52.436;13.312;2023-09-30T01:05:02;16.50;99.90
33699;DHT22;20032;52.436;13.312;2023-09-30T01:07:28;16.40;99.90
33699;DHT22;20032;52.436;13.312;2023-09-30T01:09:54;16.30;99.90
33699;DHT22;20032;52.436;13.312;2023-09-30T01:12:19;16.30;99.90
33699;DHT22;20032;52.436;13.312;2023-09-30T01:14:45;16.30;99.90
33699;DHT22;20032;52.436;13.312;2023-09-30T01:17:10;16.30;99.90
33699;DHT22;20032;52.436;13.312;2023-09-30T01:19:39;16.30;99.90
33699;DHT22;20032;52.436;13.312;2023-09-30T01:22:05;16.30;99.90
33699;DHT22;20032;52.436;13.312;2023-09-30T01:24:30;16.20;99.90
33699;DHT22;20032;52.436;13.312;2023-09-30T01:26:56;16.20;99.90
33699;DHT22;20032;52.436;13.312;2023-09-30T01:29:22;16.10;99.90
33699;DHT22;20032;52.436;13.312;2023-09-30T01:31:48;16.00;99.90
33699;DHT22;20032;52.436;13.312;2023-09-30T01:34:15;16.00;99.90
33699;DHT22;20032;52.436;13.312;2023-09-30T01:36:43;16.00;99.90
33699;DHT22;20032;52.436;13.312;2023-09-30T01:39:09;15.90;99.90
33699;DHT22;20032;52.436;13.312;2023-09-30T01:41:36;15.90;99.90
33699;DHT22;20032;52.436;13.312;2023-09-30T01:44:02;15.90;99.90
33699;DHT22;20032;52.436;13.312;2023-09-30T01:46:27;15.80;99.90
33699;DHT22;20032;52.436;13.312;2023-09-30T01:48:53;15.80;99.90
33699;DHT22;20032;52.436;13.312;2023-09-30T01:51:18;15.80;99.90
33699;DHT22;20032;52.436;13.312;2023-09-30T01:53:44;15.70;99.90
33699;DHT22;20032;52.436;13.312;2023-09-30T01:56:09;15.60;99.90
33699;DHT22;20032;52.436;13.312;2023-09-30T01:58:35;15.60;99.90
33699;DHT22;20032;52.436;13.312;2023-09-30T02:01:02;15.50;99.90
33699;DHT22;20032;52.436;13.312;2023-09-30T02:03:28;15.50;99.90
33699;DHT22;20032;52.436;13.312;2023-09-30T02:05:55;15.40;99.90
33699;DHT22;20032;52.436;13.312;2023-09-30T02:08:20;15.40;99.90
33699;DHT22;20032;52.436;13.312;2023-09-30T02:10:46;15.30;99.90
33699;DHT22;20032;52.436;13.312;2023-09-30T02:13:11;15.40;99.90
33699;DHT22;20032;52.436;13.312;2023-09-30T02:15:41;15.40;99.90
33699;DHT22;20032;52.436;13.312;2023-09-30T02:18:06;15.40;99.90
33699;DHT22;20032;52.436;13.312;2023-09-30T02:20:32;15.40;99.90
33699;DHT22;20032;52.436;13.312;2023-09-30T02:22:58;15.30;99.90
33699;DHT22;20032;52.436;13.312;2023-09-30T02:25:24;15.20;99.90
33699;DHT22;20032;52.436;13.312;2023-09-30T02:27:50;15.20;99.90
33699;DHT22;20032;52.436;13.312;2023-09-30T02:30:16;15.20;99.90
33699;DHT22;20032;52.436;13.312;2023-09-30T02:32:42;15.10;99.90
33699;DHT22;20032;52.436;13.312;2023-09-30T02:35:09;15.20;99.90
33699;DHT22;20032;52.436;13.312;2023-09-30T02:37:36;15.10;99.90
33699;DHT22;20032;52.436;13.312;2023-09-30T02:40:03;15.10;99.90
33699;DHT22;20032;52.436;13.312;2023-09-30T02:42:30;15.10;99.90
33699;DHT22;20032;52.436;13.312;2023-09-30T02:44:56;15.00;99.90
33699;DHT22;20032;52.436;13.312;2023-09-30T02:47:21;14.80;99.90
33699;DHT22;20032;52.436;13.312;2023-09-30T02:49:47;14.80;99.90
33699;DHT22;20032;52.436;13.312;2023-09-30T02:52:13;14.80;99.90
33699;DHT22;20032;52.436;13.312;2023-09-30T02:54:38;14.80;99.90
33699;DHT22;20032;52.436;13.312;2023-09-30T02:57:04;14.70;99.90
33699;DHT22;20032;52.436;13.312;2023-09-30T02:59:29;14.70;99.90
33699;DHT22;20032;52.436;13.312;2023-09-30T03:01:55;14.80;99.90
33699;DHT22;20032;52.436;13.312;2023-09-30T03:04:21;14.90;99.90
33699;DHT22;20032;52.436;13.312;2023-09-30T03:06:51;14.80;99.90
33699;DHT22;20032;52.436;13.312;2023-09-30T03:09:16;14.80;99.90
33699;DHT22;20032;52.436;13.312;2023-09-30T03:11:42;14.80;99.90
33699;DHT22;20032;52.436;13.312;2023-09-30T03:14:10;14.70;99.90
33699;DHT22;20032;52.436;13.312;2023-09-30T03:16:36;14.70;99.90
33699;DHT22;20032;52.436;13.312;2023-09-30T03:19:04;14.70;99.90
33699;DHT22;20032;52.436;13.312;2023-09-30T03:21:34;14.70;99.90
33699;DHT22;20032;52.436;13.312;2023-09-30T03:24:02;14.80;99.90
33699;DHT22;20032;52.436;13.312;2023-09-30T03:26:29;14.70;99.90
33699;DHT22;20032;52.436;13.312;2023-09-30T03:28:55;14.70;99.90
33699;DHT22;20032;52.436;13.312;2023-09-30T03:31:20;14.60;99.90
33699;DHT22;20032;52.436;13.312;2023-09-30T03:33:48;14.70;99.90
33699;DHT22;20032;52.436;13.312;2023-09-30T03:36:13;14.60;99.90
33699;DHT22;20032;52.436;13.312;2023-09-30T03:38:40;14.50;99.90
33699;DHT22;20032;52.436;13.312;2023-09-30T03:41:06;14.50;99.90
33699;DHT22;20032;52.436;13.312;2023-09-30T03:43:34;14.40;99.90
33699;DHT22;20032;52.436;13.312;2023-09-30T03:46:06;14.40;99.90
33699;DHT22;20032;52.436;13.312;2023-09-30T03:48:32;14.40;99.90
33699;DHT22;20032;52.436;13.312;2023-09-30T03:50:57;14.50;99.90
33699;DHT22;20032;52.436;13.312;2023-09-30T03:53:23;14.40;99.90
33699;DHT22;20032;52.436;13.312;2023-09-30T03:55:51;14.40;99.90
33699;DHT22;20032;52.436;13.312;2023-09-30T03:58:16;14.50;99.90
33699;DHT22;20032;52.436;13.312;2023-09-30T04:00:44;14.40;99.90
33699;DHT22;20032;52.436;13.312;2023-09-30T04:03:10;14.30;99.90
33699;DHT22;20032;52.436;13.312;2023-09-30T04:05:35;14.30;99.90
33699;DHT22;20032;52.436;13.312;2023-09-30T04:08:02;14.40;99.90
33699;DHT22;20032;52.436;13.312;2023-09-30T04:10:28;14.40;99.90
33699;DHT22;20032;52.436;13.312;2023-09-30T04:12:55;14.40;99.90
33699;DHT22;20032;52.436;13.312;2023-09-30T04:15:21;14.40;99.90
33699;DHT22;20032;52.436;13.312;2023-09-30T04:17:48;14.30;99.90
33699;DHT22;20032;52.436;13.312;2023-09-30T04:20:14;14.30;99.90
33699;DHT22;20032;52.436;13.312;2023-09-30T04:22:45;14.30;99.90
33699;DHT22;20032;52.436;13.312;2023-09-30T04:25:14;14.20;99.90
33699;DHT22;20032;52.436;13.312;2023-09-30T04:27:42;14.20;99.90
33699;DHT22;20032;52.436;13.312;2023-09-30T04:30:08;14.20;99.90
33699;DHT22;20032;52.436;13.312;2023-09-30T04:32:36;14.20;99.90
33699;DHT22;20032;52.436;13.312;2023-09-30T04:35:03;14.20;99.90
33699;DHT22;20032;52.436;13.312;2023-09-30T04:37:28;14.20;99.90
33699;DHT22;20032;52.436;13.312;2023-09-30T04:39:54;14.20;99.90
33699;DHT22;20032;52.436;13.312;2023-09-30T04:42:19;14.20;99.90
33699;DHT22;20032;52.436;13.312;2023-09-30T04:44:45;14.10;99.90
33699;DHT22;20032;52.436;13.312;2023-09-30T04:47:10;14.00;99.90
33699;DHT22;20032;52.436;13.312;2023-09-30T04:49:36;14.10;99.90
33699;DHT22;20032;52.436;13.312;2023-09-30T04:52:02;14.00;99.90
33699;DHT22;20032;52.436;13.312;2023-09-30T04:54:29;14.00;99.90
33699;DHT22;20032;52.436;13.312;2023-09-30T04:56:55;14.00;99.90
33699;DHT22;20032;52.436;13.312;2023-09-30T04:59:20;13.90;99.90
33699;DHT22;20032;52.436;13.312;2023-09-30T05:01:46;13.90;99.90
33699;DHT22;20032;52.436;13.312;2023-09-30T05:04:11;13.90;99.90
33699;DHT22;20032;52.436;13.312;2023-09-30T05:06:38;13.90;99.90
33699;DHT22;20032;52.436;13.312;2023-09-30T05:09:03;13.90;99.90
33699;DHT22;20032;52.436;13.312;2023-09-30T05:11:29;14.00;99.90
33699;DHT22;20032;52.436;13.312;2023-09-30T05:13:56;13.90;99.90
33699;DHT22;20032;52.436;13.312;2023-09-30T05:16:22;14.00;99.90
33699;DHT22;20032;52.436;13.312;2023-09-30T05:18:47;14.00;99.90
33699;DHT22;20032;52.436;13.312;2023-09-30T05:21:13;14.00;99.90
33699;DHT22;20032;52.436;13.312;2023-09-30T05:23:39;14.00;99.90
33699;DHT22;20032;52.436;13.312;2023-09-30T05:26:04;13.90;99.90
33699;DHT22;20032;52.436;13.312;2023-09-30T05:28:29;13.80;99.90
33699;DHT22;20032;52.436;13.312;2023-09-30T05:30:56;13.80;99.90
33699;DHT22;20032;52.436;13.312;2023-09-30T05:33:22;13.90;99.90
33699;DHT22;20032;52.436;13.312;2023-09-30T05:35:48;13.90;99.90
33699;DHT22;20032;52.436;13.312;2023-09-30T05:38:13;13.90;99.90
33699;DHT22;20032;52.436;13.312;2023-09-30T05:40:39;13.90;99.90
33699;DHT22;20032;52.436;13.312;2023-09-30T05:43:04;13.90;99.90
33699;DHT22;20032;52.436;13.312;2023-09-30T05:45:32;13.90;99.90
33699;DHT22;20032;52.436;13.312;2023-09-30T05:48:01;13.90;99.90
33699;DHT22;20032;52.436;13.312;2023-09-30T05:50:29;13.90;99.90
33699;DHT22;20032;52.436;13.312;2023-09-30T05:52:55;13.90;99.90
33699;DHT22;20032;52.436;13.312;2023-09-30T05:55:21;14.00;99.90
33699;DHT22;20032;52.436;13.312;2023-09-30T05:57:48;13.90;99.90
33699;DHT22;20032;52.436;13.312;2023-09-30T06:00:15;14.00;99.90
33699;DHT22;20032;52.436;13.312;2023-09-30T06:02:46;14.10;99.90
33699;DHT22;20032;52.436;13.312;2023-09-30T06:05:11;14.20;99.90
33699;DHT22;20032;52.436;13.312;2023-09-30T06:07:38;14.20;99.90
33699;DHT22;20032;52.436;13.312;2023-09-30T06:10:04;14.30;99.90
33699;DHT22;20032;52.436;13.312;2023-09-30T06:12:30;14.30;99.90
33699;DHT22;20032;52.436;13.312;2023-09-30T06:14:56;14.30;99.90
33699;DHT22;20032;52.436;13.312;2023-09-30T06:17:21;14.40;99.90
33699;DHT22;20032;52.436;13.312;2023-09-30T06:19:48;14.40;99.90
33699;DHT22;20032;52.436;13.312;2023-09-30T06:22:15;14.40;99.90
33699;DHT22;20032;52.436;13.312;2023-09-30T06:24:41;14.30;99.90
33699;DHT22;20032;52.436;13.312;2023-09-30T06:27:07;14.30;99.90
33699;DHT22;20032;52.436;13.312;2023-09-30T06:29:32;14.40;99.90
33699;DHT22;20032;52.436;13.312;2023-09-30T06:31:59;14.40;99.90
33699;DHT22;20032;52.436;13.312;2023-09-30T06:34:24;14.40;99.90
33699;DHT22;20032;52.436;13.312;2023-09-30T06:36:50;14.40;99.90
33699;DHT22;20032;52.436;13.312;2023-09-30T06:39:18;14.40;99.90
33699;DHT22;20032;52.436;13.312;2023-09-30T06:41:43;14.40;99.90
33699;DHT22;20032;52.436;13.312;2023-09-30T06:44:09;14.50;99.90
33699;DHT22;20032;52.436;13.312;2023-09-30T06:46:34;14.50;99.90
33699;DHT22;20032;52.436;13.312;2023-09-30T06:48:59;14.50;99.90
33699;DHT22;20032;52.436;13.312;2023-09-30T06:51:25;14.60;99.90
33699;DHT22;20032;52.436;13.312;2023-09-30T06:53:52;14.60;99.90
33699;DHT22;20032;52.436;13.312;2023-09-30T06:56:17;14.60;99.90
33699;DHT22;20032;52.436;13.312;2023-09-30T06:58:43;14.60;99.90
33699;DHT22;20032;52.436;13.312;2023-09-30T07:01:08;14.70;99.90
33699;DHT22;20032;52.436;13.312;2023-09-30T07:03:34;14.80;99.90
33699;DHT22;20032;52.436;13.312;2023-09-30T07:05:59;14.80;99.90
33699;DHT22;20032;52.436;13.312;2023-09-30T07:08:27;14.70;99.90
33699;DHT22;20032;52.436;13.312;2023-09-30T07:10:54;14.70;99.90
33699;DHT22;20032;52.436;13.312;2023-09-30T07:13:21;14.70;99.90
33699;DHT22;20032;52.436;13.312;2023-09-30T07:15:47;14.80;99.90
33699;DHT22;20032;52.436;13.312;2023-09-30T07:18:12;14.90;99.90
33699;DHT22;20032;52.436;13.312;2023-09-30T07:20:39;15.00;99.90
33699;DHT22;20032;52.436;13.312;2023-09-30T07:23:04;14.90;99.90
33699;DHT22;20032;52.436;13.312;2023-09-30T07:25:30;14.80;99.90
33699;DHT22;20032;52.436;13.312;2023-09-30T07:28:00;14.80;99.90
33699;DHT22;20032;52.436;13.312;2023-09-30T07:30:26;15.00;99.90
33699;DHT22;20032;52.436;13.312;2023-09-30T07:32:51;15.10;99.90
33699;DHT22;20032;52.436;13.312;2023-09-30T07:35:17;15.10;99.90
33699;DHT22;20032;52.436;13.312;2023-09-30T07:37:43;15.00;99.90
33699;DHT22;20032;52.436;13.312;2023-09-30T07:40:10;15.00;99.90
33699;DHT22;20032;52.436;13.312;2023-09-30T07:42:36;15.10;99.90
33699;DHT22;20032;52.436;13.312;2023-09-30T07:45:02;15.00;99.90
33699;DHT22;20032;52.436;13.312;2023-09-30T07:47:29;15.10;99.90
33699;DHT22;20032;52.436;13.312;2023-09-30T07:49:56;15.10;99.90
33699;DHT22;20032;52.436;13.312;2023-09-30T07:52:21;15.10;99.90
33699;DHT22;20032;52.436;13.312;2023-09-30T07:54:47;15.10;99.90
33699;DHT22;20032;52.436;13.312;2023-09-30T07:57:13;15.10;99.90
33699;DHT22;20032;52.436;13.312;2023-09-30T07:59:38;15.20;99.90
33699;DHT22;20032;52.436;13.312;2023-09-30T08:02:04;15.20;99.90
33699;DHT22;20032;52.436;13.312;2023-09-30T08:04:30;15.10;99.90
33699;DHT22;20032;52.436;13.312;2023-09-30T08:06:56;15.20;99.90
33699;DHT22;20032;52.436;13.312;2023-09-30T08:09:21;15.20;99.90
33699;DHT22;20032;52.436;13.312;2023-09-30T08:11:49;15.20;99.90
33699;DHT22;20032;52.436;13.312;2023-09-30T08:14:16;15.20;99.90
33699;DHT22;20032;52.436;13.312;2023-09-30T08:16:41;15.30;99.90
33699;DHT22;20032;52.436;13.312;2023-09-30T08:19:08;15.30;99.90
33699;DHT22;20032;52.436;13.312;2023-09-30T08:21:34;15.50;99.90
33699;DHT22;20032;52.436;13.312;2023-09-30T08:24:00;15.60;99.90
33699;DHT22;20032;52.436;13.312;2023-09-30T08:26:25;15.70;99.90
33699;DHT22;20032;52.436;13.312;2023-09-30T08:28:51;16.00;99.90
33699;DHT22;20032;52.436;13.312;2023-09-30T08:31:16;16.10;99.90
33699;DHT22;20032;52.436;13.312;2023-09-30T08:33:42;16.00;99.90
33699;DHT22;20032;52.436;13.312;2023-09-30T08:36:10;16.00;99.90
33699;DHT22;20032;52.436;13.312;2023-09-30T08:38:36;16.00;99.90
33699;DHT22;20032;52.436;13.312;2023-09-30T08:41:03;16.00;99.90
33699;DHT22;20032;52.436;13.312;2023-09-30T08:43:29;16.00;99.90
33699;DHT22;20032;52.436;13.312;2023-09-30T08:45:58;16.20;99.90
33699;DHT22;20032;52.436;13.312;2023-09-30T08:48:23;16.20;99.90
33699;DHT22;20032;52.436;13.312;2023-09-30T08:50:53;16.30;99.90
33699;DHT22;20032;52.436;13.312;2023-09-30T08:53:19;16.30;99.90
33699;DHT22;20032;52.436;13.312;2023-09-30T08:55:46;16.30;99.90
33699;DHT22;20032;52.436;13.312;2023-09-30T08:58:13;16.20;99.90
33699;DHT22;20032;52.436;13.312;2023-09-30T09:00:39;16.20;99.90
33699;DHT22;20032;52.436;13.312;2023-09-30T09:03:06;16.20;99.90
33699;DHT22;20032;52.436;13.312;2023-09-30T09:05:32;16.30;99.90
33699;DHT22;20032;52.436;13.312;2023-09-30T09:07:58;16.30;99.90
33699;DHT22;20032;52.436;13.312;2023-09-30T09:10:23;16.30;99.90
33699;DHT22;20032;52.436;13.312;2023-09-30T09:12:58;16.30;99.90
33699;DHT22;20032;52.436;13.312;2023-09-30T09:15:26;16.40;99.90
33699;DHT22;20032;52.436;13.312;2023-09-30T09:17:54;16.50;99.90
33699;DHT22;20032;52.436;13.312;2023-09-30T09:20:22;16.60;99.90
33699;DHT22;20032;52.436;13.312;2023-09-30T09:22:49;16.80;99.90
33699;DHT22;20032;52.436;13.312;2023-09-30T09:25:18;16.90;99.90
33699;DHT22;20032;52.436;13.312;2023-09-30T09:27:43;17.10;99.90
33699;DHT22;20032;52.436;13.312;2023-09-30T09:30:21;17.30;99.90
33699;DHT22;20032;52.436;13.312;2023-09-30T09:33:07;17.40;99.90
33699;DHT22;20032;52.436;13.312;2023-09-30T09:35:33;17.40;99.90
33699;DHT22;20032;52.436;13.312;2023-09-30T09:38:05;17.40;99.90
33699;DHT22;20032;52.436;13.312;2023-09-30T09:40:33;17.40;99.90
33699;DHT22;20032;52.436;13.312;2023-09-30T09:43:00;17.50;99.90
33699;DHT22;20032;52.436;13.312;2023-09-30T09:45:28;17.60;99.90
33699;DHT22;20032;52.436;13.312;2023-09-30T09:47:54;17.60;99.90
33699;DHT22;20032;52.436;13.312;2023-09-30T09:50:21;17.60;99.90
33699;DHT22;20032;52.436;13.312;2023-09-30T09:52:48;17.70;99.90
33699;DHT22;20032;52.436;13.312;2023-09-30T09:55:17;17.70;99.90
33699;DHT22;20032;52.436;13.312;2023-09-30T09:57:44;17.70;99.90
33699;DHT22;20032;52.436;13.312;2023-09-30T10:02:36;17.80;99.90
33699;DHT22;20032;52.436;13.312;2023-09-30T10:05:02;17.80;99.90
33699;DHT22;20032;52.436;13.312;2023-09-30T10:07:34;17.80;99.90
33699;DHT22;20032;52.436;13.312;2023-09-30T10:10:05;17.80;99.90
33699;DHT22;20032;52.436;13.312;2023-09-30T10:12:39;18.00;99.90
33699;DHT22;20032;52.436;13.312;2023-09-30T10:18:09;18.20;99.90
33699;DHT22;20032;52.436;13.312;2023-09-30T10:20:37;18.20;99.90
33699;DHT22;20032;52.436;13.312;2023-09-30T10:23:20;18.30;99.90
33699;DHT22;20032;52.436;13.312;2023-09-30T10:25:47;18.40;99.90
33699;DHT22;20032;52.436;13.312;2023-09-30T10:28:34;18.40;99.90
33699;DHT22;20032;52.436;13.312;2023-09-30T10:31:18;18.40;99.90
33699;DHT22;20032;52.436;13.312;2023-09-30T10:36:29;18.30;99.90
33699;DHT22;20032;52.436;13.312;2023-09-30T10:38:55;18.30;99.90
33699;DHT22;20032;52.436;13.312;2023-09-30T10:46:57;18.30;99.90
33699;DHT22;20032;52.436;13.312;2023-09-30T10:51:51;18.60;99.90
33699;DHT22;20032;52.436;13.312;2023-09-30T10:54:26;18.50;99.90
33699;DHT22;20032;52.436;13.312;2023-09-30T10:56:53;18.60;99.90
33699;DHT22;20032;52.436;13.312;2023-09-30T10:59:20;18.70;99.90
33699;DHT22;20032;52.436;13.312;2023-09-30T11:01:45;19.00;99.90
33699;DHT22;20032;52.436;13.312;2023-09-30T11:04:11;19.10;99.90
33699;DHT22;20032;52.436;13.312;2023-09-30T11:06:41;19.00;99.90
33699;DHT22;20032;52.436;13.312;2023-09-30T11:09:06;19.00;99.90
33699;DHT22;20032;52.436;13.312;2023-09-30T11:14:25;18.70;99.90
33699;DHT22;20032;52.436;13.312;2023-09-30T11:16:53;18.70;99.90
33699;DHT22;20032;52.436;13.312;2023-09-30T11:19:19;18.90;99.90
33699;DHT22;20032;52.436;13.312;2023-09-30T11:21:50;19.20;99.90
33699;DHT22;20032;52.436;13.312;2023-09-30T11:24:16;19.20;99.90
33699;DHT22;20032;52.436;13.312;2023-09-30T11:26:42;19.20;99.90
33699;DHT22;20032;52.436;13.312;2023-09-30T11:29:10;19.40;99.90
33699;DHT22;20032;52.436;13.312;2023-09-30T11:31:38;19.60;99.90
33699;DHT22;20032;52.436;13.312;2023-09-30T11:34:04;19.90;99.90
33699;DHT22;20032;52.436;13.312;2023-09-30T11:36:30;20.30;99.90
33699;DHT22;20032;52.436;13.312;2023-09-30T11:38:58;20.40;99.90
33699;DHT22;20032;52.436;13.312;2023-09-30T11:41:35;20.50;99.90
33699;DHT22;20032;52.436;13.312;2023-09-30T11:44:07;20.90;99.90
33699;DHT22;20032;52.436;13.312;2023-09-30T11:51:53;21.20;99.90
33699;DHT22;20032;52.436;13.312;2023-09-30T11:54:19;21.40;99.90
33699;DHT22;20032;52.436;13.312;2023-09-30T11:56:44;21.60;99.90
33699;DHT22;20032;52.436;13.312;2023-09-30T11:59:10;21.80;99.90
33699;DHT22;20032;52.436;13.312;2023-09-30T12:01:37;21.60;99.90
33699;DHT22;20032;52.436;13.312;2023-09-30T12:04:03;21.20;99.90
33699;DHT22;20032;52.436;13.312;2023-09-30T12:06:29;21.30;99.90
33699;DHT22;20032;52.436;13.312;2023-09-30T12:08:54;21.60;99.90
33699;DHT22;20032;52.436;13.312;2023-09-30T12:11:20;21.90;99.90
33699;DHT22;20032;52.436;13.312;2023-09-30T12:13:45;22.10;99.90
33699;DHT22;20032;52.436;13.312;2023-09-30T12:16:14;22.20;99.90
33699;DHT22;20032;52.436;13.312;2023-09-30T12:18:40;22.40;99.90
33699;DHT22;20032;52.436;13.312;2023-09-30T12:21:07;22.20;99.90
33699;DHT22;20032;52.436;13.312;2023-09-30T12:23:33;21.90;99.90
33699;DHT22;20032;52.436;13.312;2023-09-30T12:25:58;21.30;99.90
33699;DHT22;20032;52.436;13.312;2023-09-30T12:28:24;21.00;99.90
33699;DHT22;20032;52.436;13.312;2023-09-30T12:30:49;20.80;99.90
33699;DHT22;20032;52.436;13.312;2023-09-30T12:33:15;20.70;99.90
33699;DHT22;20032;52.436;13.312;2023-09-30T12:35:40;20.50;99.90
33699;DHT22;20032;52.436;13.312;2023-09-30T12:38:06;20.50;99.90
33699;DHT22;20032;52.436;13.312;2023-09-30T12:40:31;20.50;99.90
33699;DHT22;20032;52.436;13.312;2023-09-30T12:42:57;20.80;99.90
33699;DHT22;20032;52.436;13.312;2023-09-30T12:45:23;21.40;99.90
33699;DHT22;20032;52.436;13.312;2023-09-30T12:47:48;21.70;99.90
33699;DHT22;20032;52.436;13.312;2023-09-30T12:50:17;21.70;99.90
33699;DHT22;20032;52.436;13.312;2023-09-30T12:52:43;22.10;99.90
33699;DHT22;20032;52.436;13.312;2023-09-30T12:55:09;22.40;99.90
33699;DHT22;20032;52.436;13.312;2023-09-30T12:57:35;22.60;99.90
33699;DHT22;20032;52.436;13.312;2023-09-30T13:00:00;22.40;99.90
33699;DHT22;20032;52.436;13.312;2023-09-30T13:02:26;21.80;99.90
33699;DHT22;20032;52.436;13.312;2023-09-30T13:04:52;21.70;99.90
33699;DHT22;20032;52.436;13.312;2023-09-30T13:07:19;21.50;99.90
33699;DHT22;20032;52.436;13.312;2023-09-30T13:09:45;21.40;99.90
33699;DHT22;20032;52.436;13.312;2023-09-30T13:12:11;21.30;99.90
33699;DHT22;20032;52.436;13.312;2023-09-30T13:14:37;21.20;99.90
33699;DHT22;20032;52.436;13.312;2023-09-30T13:17:04;21.10;99.90
33699;DHT22;20032;52.436;13.312;2023-09-30T13:19:29;21.00;99.90
33699;DHT22;20032;52.436;13.312;2023-09-30T13:21:55;21.00;99.90
33699;DHT22;20032;52.436;13.312;2023-09-30T13:24:21;20.90;99.90
33699;DHT22;20032;52.436;13.312;2023-09-30T13:26:46;20.90;99.90
33699;DHT22;20032;52.436;13.312;2023-09-30T13:29:12;21.00;99.90
33699;DHT22;20032;52.436;13.312;2023-09-30T13:31:38;21.10;99.90
33699;DHT22;20032;52.436;13.312;2023-09-30T13:34:05;21.20;99.90
33699;DHT22;20032;52.436;13.312;2023-09-30T13:36:31;21.30;99.90
33699;DHT22;20032;52.436;13.312;2023-09-30T13:38:57;21.30;99.90
33699;DHT22;20032;52.436;13.312;2023-09-30T13:41:23;21.40;99.90
33699;DHT22;20032;52.436;13.312;2023-09-30T13:43:49;21.60;99.90
33699;DHT22;20032;52.436;13.312;2023-09-30T13:46:14;21.80;99.90
33699;DHT22;20032;52.436;13.312;2023-09-30T13:48:42;22.00;99.90
33699;DHT22;20032;52.436;13.312;2023-09-30T13:51:08;22.10;99.90
33699;DHT22;20032;52.436;13.312;2023-09-30T13:53:35;22.20;99.90
33699;DHT22;20032;52.436;13.312;2023-09-30T13:56:00;22.20;99.90
33699;DHT22;20032;52.436;13.312;2023-09-30T13:58:26;22.10;99.90
33699;DHT22;20032;52.436;13.312;2023-09-30T14:00:52;21.90;99.90
33699;DHT22;20032;52.436;13.312;2023-09-30T14:03:18;21.60;99.90
33699;DHT22;20032;52.436;13.312;2023-09-30T14:05:45;21.50;99.90
33699;DHT22;20032;52.436;13.312;2023-09-30T14:08:11;21.20;99.90
33699;DHT22;20032;52.436;13.312;2023-09-30T14:10:36;21.10;99.90
33699;DHT22;20032;52.436;13.312;2023-09-30T14:13:02;20.80;99.90
33699;DHT22;20032;52.436;13.312;2023-09-30T14:15:28;20.80;99.90
33699;DHT22;20032;52.436;13.312;2023-09-30T14:17:54;20.60;99.90
33699;DHT22;20032;52.436;13.312;2023-09-30T14:20:21;20.50;99.90
33699;DHT22;20032;52.436;13.312;2023-09-30T14:22:46;20.60;99.90
33699;DHT22;20032;52.436;13.312;2023-09-30T14:25:13;20.60;99.90
33699;DHT22;20032;52.436;13.312;2023-09-30T14:27:38;20.60;99.90
33699;DHT22;20032;52.436;13.312;2023-09-30T14:30:06;20.50;99.90
33699;DHT22;20032;52.436;13.312;2023-09-30T14:32:32;20.50;99.90
33699;DHT22;20032;52.436;13.312;2023-09-30T14:34:57;20.40;99.90
33699;DHT22;20032;52.436;13.312;2023-09-30T14:37:23;20.40;99.90
33699;DHT22;20032;52.436;13.312;2023-09-30T14:39:49;20.40;99.90
33699;DHT22;20032;52.436;13.312;2023-09-30T14:42:14;20.30;99.90
33699;DHT22;20032;52.436;13.312;2023-09-30T14:44:40;20.30;99.90
33699;DHT22;20032;52.436;13.312;2023-09-30T14:47:06;20.20;99.90
33699;DHT22;20032;52.436;13.312;2023-09-30T14:49:32;20.20;99.90
33699;DHT22;20032;52.436;13.312;2023-09-30T14:51:57;20.20;99.90
33699;DHT22;20032;52.436;13.312;2023-09-30T14:54:23;20.10;99.90
33699;DHT22;20032;52.436;13.312;2023-09-30T14:56:48;20.10;99.90
33699;DHT22;20032;52.436;13.312;2023-09-30T14:59:14;20.00;99.90
33699;DHT22;20032;52.436;13.312;2023-09-30T15:01:39;19.90;99.90
33699;DHT22;20032;52.436;13.312;2023-09-30T15:04:05;20.00;99.90
33699;DHT22;20032;52.436;13.312;2023-09-30T15:06:33;20.00;99.90
33699;DHT22;20032;52.436;13.312;2023-09-30T15:09:01;19.90;99.90
33699;DHT22;20032;52.436;13.312;2023-09-30T15:11:27;19.90;99.90
33699;DHT22;20032;52.436;13.312;2023-09-30T15:13:52;19.80;99.90
33699;DHT22;20032;52.436;13.312;2023-09-30T15:16:19;19.70;99.90
33699;DHT22;20032;52.436;13.312;2023-09-30T15:18:47;19.70;99.90
33699;DHT22;20032;52.436;13.312;2023-09-30T15:21:14;19.60;99.90
33699;DHT22;20032;52.436;13.312;2023-09-30T15:23:40;19.60;99.90
33699;DHT22;20032;52.436;13.312;2023-09-30T15:26:05;19.50;99.90
33699;DHT22;20032;52.436;13.312;2023-09-30T15:28:31;19.40;99.90
33699;DHT22;20032;52.436;13.312;2023-09-30T15:30:58;19.40;99.90
33699;DHT22;20032;52.436;13.312;2023-09-30T15:33:24;19.40;99.90
33699;DHT22;20032;52.436;13.312;2023-09-30T15:35:49;19.40;99.90
33699;DHT22;20032;52.436;13.312;2023-09-30T15:38:15;19.40;99.90